Merino, CO

8:05 PM MDT on August 30, 2014 (GMT -0600)
Sterling Municipal | Change Station
CLOSE
Current Station
Airport
Location: Sterling Muni, Sterling, CO,
Elevation: 4039 ft
Nearby Weather Stations

Elev 4039 ft 40.62 °N, 103.26 °W | Updated 15 minutes ago

Scattered Clouds
Scattered Clouds
79 °F
Feels Like 79 °F
N
22
Wind Variable Wind from NNW
Gusts 28 mph

Today
High -- | Low -- °F
--% Chance of Precip.
Yesterday
High -- | Low -- °F
Precip. -- in
6:18 AM 7:28 PM
Waxing Crescent, 26% visible
Pressure 29.85 in
Visibility 10.0 miles
Clouds Scattered Clouds 12000 ft
Dew Point 52 °F
Humidity 39%
Rainfall 0.00 in
Snow Depth Not available.
UV 0 out of 12
Pollen 10.20 out of 12
Air Quality Not available.
Flu Activity Not available.
METAR KSTK 310150Z AUTO 34019G24KT 10SM SCT120 26/11 A2985 RMK AO2

More Conditions Fewer Conditions

Pressure 29.85 in
Visibility 10.0 miles
Clouds Scattered Clouds 12000 ft
Dew Point 52 °F
Humidity 39%
Rainfall 0.00 in
Snow Depth Not available.
UV 0 out of 12
Pollen 10.20 out of 12
Air Quality Not available.
Flu Activity Not available.
METAR KSTK 310150Z AUTO 34019G24KT 10SM SCT120 26/11 A2985 RMK AO2

More Conditions Fewer Conditions

Nowcast | as of 7:01 PM MDT on August 30, 2014

Isolated rain showers or thunderstorms will move over Logan...Morgan and Washington counties through 9 PM. Gusty winds up to 35 mph will be possible along with amounts of rain less than one-tenth of an inch.

×

10-Day Weather Forecast

Almanac

Astronomy

Aug. 30, 2014 Rise Set
Actual Time 6:18 AM MDT 7:28 PM MDT
Civil Twilight 5:50 AM MDT 7:56 PM MDT
Nautical Twilight 5:17 AM MDT 8:30 PM MDT
Astronomical Twilight 4:41 AM MDT 9:05 PM MDT
Moon 11:10 AM MDT (8/30) 10:03 PM MDT (8/30)
Length of Visible Light 14h 06m
Length of Day
13h 09m
Tomorrow will be 2m 33s shorter.
Waxing Crescent, 26% of the Moon is Illuminated
Today
Waxing Crescent
Sep 2
First Quarter
Sep 8
Full
Sep 15
Last Quarter
Sep 24
New

Today's Extremes

State Highs State Lows

Community

WunderPhotos

Upload Photos

1,748,725 photos uploaded!

Nearby

Snow Depth

Station Depth Elevation
Wild Basin 0 in 9560 ft
Niwot 0 in 9910 ft
University Camp 0 in 10300 ft
Willow Park 0 in 10700 ft
Lake Irene 0 in 10700 ft

Earthquake Activity

City Distance Mag. Time & Date
No recent earthquake activity has been reported nearby.
Minimum magnitude displayed is 2.5.

Coastal Water Temperatures

Place Temperature
No Stations Reporting

Nearby Weather Stations